Venez nous rendre visite !

Club Aérien Lille Métropole

Horaires

Mardi : 10h30 - 12h 30 / 13h - 18h
Mercredi : 13h - 20h
Jeudi : 10h30 - 12h 30 / 13h - 18h
Vendredi : 10h30 - 12h 30 / 13h - 18h
Samedi : 10h30 - 12h 30 / 13h - 18h

La météo actuelle sur la plateforme de Lesquin LFQQ

TAF LFQQ
LFQQ 061808Z 0618/0724 20020G30KT 4000 RA BKN011 BKN015CB OVC020 BECMG 0618/0620 28011KT 9999 NSW SCT030 BECMG 0703/0706 22005KT BECMG 0710/0713 16012KT OVC007 BECMG 0713/0715 16017G27KT OVC013 BECMG 0716/0719 16027G37KT 4000 RA BKN007 OVC013 BECMG 0721/0723 20015G25KT 9999 NSW SCT015

Venir nous rencontrer

Route de l’Aéroport

59810 Lesquin

Téléphone : 03 20 60 18 54

Du mardi au samedi de 10h30 à 12h30

et de 13h à 18h

Suivre notre actualité